Terminal Aerodrome Forecast
Issued by NWS

Home | Current Version | Previous Version | Text Only | Print | Product List | Glossary On
Versions: 1 2 3 4 5 6 7 8 9 10 11 12 13 14
327
FTUS45 KRIW 111728
TAFCPR
TAF
KCPR 111728Z 1118/1218 23015G25KT P6SM BKN250
     FM120000 22010KT P6SM SCT250
     FM120600 22008KT P6SM SCT070 BKN120=

USA.gov is the U.S. government's official web portal to all federal, state and local government web resources and services.